Time;durP1;ratioP1;P1;durP2;ratioP2;P2;SDS_P1;SDS_P2;PMS_P1;PMS_P2;Temp;Humidity;BMP_temperature;BMP_pressure;BME280_temperature;BME280_humidity;BME280_pressure;Samples;Min_cycle;Max_cycle;Signal;HPM_P1;HPM_P2
2023/04/12 00:02:26;;;;;;;16.50;7.47;;;;;;;15.39;40.38;100364.88;4918248;29;20559;-76
2023/04/12 00:05:15;;;;;;;13.40;7.25;;;;;;;15.41;40.14;100363.38;4921259;29;20076;-78
2023/04/12 00:08:10;;;;;;;15.20;7.57;;;;;;;15.43;40.02;100364.97;4918682;29;20531;-77
2023/04/12 00:11:02;;;;;;;16.58;5.75;;;;;;;15.57;40.25;100357.91;4922297;29;20515;-77
2023/04/12 00:13:57;;;;;;;12.80;7.18;;;;;;;15.50;40.19;100356.91;4919661;29;20047;-77
2023/04/12 00:16:51;;;;;;;13.50;7.40;;;;;;;15.59;40.09;100352.06;4918130;29;20051;-78
2023/04/12 00:19:46;;;;;;;10.15;4.95;;;;;;;15.59;40.43;100354.81;4921620;29;20408;-77
2023/04/12 00:22:40;;;;;;;12.90;6.57;;;;;;;15.61;40.15;100360.72;4919304;29;20523;-79
2023/04/12 00:25:35;;;;;;;9.18;5.45;;;;;;;15.45;40.28;100346.22;4916563;29;20055;-78
2023/04/12 00:28:29;;;;;;;15.03;8.53;;;;;;;15.43;40.47;100354.03;4920379;29;20051;-79
2023/04/12 00:31:21;;;;;;;13.30;7.35;;;;;;;15.44;40.58;100345.41;4917401;29;20279;-79
2023/04/12 00:34:16;;;;;;;16.77;7.50;;;;;;;15.40;40.74;100345.34;4917284;29;20055;-78
2023/04/12 00:37:12;;;;;;;15.20;9.20;;;;;;;15.43;40.68;100343.06;4920497;29;20047;-78
2023/04/12 00:40:06;;;;;;;16.53;7.30;;;;;;;15.41;40.72;100341.47;4917008;29;20412;-78
2023/04/12 00:43:01;;;;;;;17.35;7.50;;;;;;;15.36;40.77;100336.25;4917255;29;20288;-78
2023/04/12 00:45:58;;;;;;;11.35;5.75;;;;;;;15.23;41.15;100329.31;4917219;29;20056;-78
2023/04/12 00:48:50;;;;;;;16.77;7.07;;;;;;;15.29;41.18;100327.88;4920322;29;20055;-78
2023/04/12 00:51:45;;;;;;;16.35;8.07;;;;;;;15.22;41.11;100324.19;4916544;29;20043;-78
2023/04/12 00:54:39;;;;;;;16.07;8.03;;;;;;;15.11;41.61;100320.38;4917530;29;20487;-78
2023/04/12 00:57:33;;;;;;;12.38;7.78;;;;;;;15.06;41.71;100315.19;4917672;29;20051;-78
2023/04/12 01:00:27;;;;;;;12.80;8.13;;;;;;;14.98;41.88;100316.97;4917199;29;20063;-78
2023/04/12 01:03:25;;;;;;;13.50;8.10;;;;;;;15.09;41.72;100323.47;4917586;29;20047;-78
2023/04/12 01:06:25;;;;;;;17.92;8.27;;;;;;;14.98;41.78;100311.50;4944806;28;20581;-78
2023/04/12 01:09:28;;;;;;;13.57;7.60;;;;;;;14.94;42.13;100310.59;4960826;28;20166;-78
2023/04/12 01:12:55;;;;;;;15.82;9.05;;;;;;;14.98;42.23;100306.03;4959194;28;20061;-77
2023/04/12 01:16:08;;;;;;;15.10;7.75;;;;;;;14.90;42.41;100315.19;4959954;28;20058;-77
2023/04/12 01:19:16;;;;;;;11.98;7.30;;;;;;;15.01;42.39;100310.78;4956500;28;20100;-79
2023/04/12 01:22:39;;;;;;;13.60;7.85;;;;;;;15.01;42.31;100315.44;4958853;28;20046;-80
2023/04/12 01:25:52;;;;;;;14.32;8.07;;;;;;;14.95;42.62;100310.25;4926905;28;20042;-79
2023/04/12 01:28:48;;;;;;;16.35;8.60;;;;;;;14.93;42.64;100298.06;4959591;28;20050;-78
2023/04/12 01:31:45;;;;;;;16.27;8.50;;;;;;;14.91;42.60;100298.41;4956138;28;20043;-78
2023/04/12 01:34:41;;;;;;;13.98;7.30;;;;;;;14.94;42.68;100296.91;4955185;28;20054;-78
2023/04/12 01:37:37;;;;;;;14.65;8.85;;;;;;;14.91;42.96;100300.34;4957099;28;20042;-79
2023/04/12 01:40:31;;;;;;;15.38;8.52;;;;;;;14.96;42.80;100302.81;4954419;28;20046;-78
2023/04/12 01:43:23;;;;;;;13.88;7.85;;;;;;;15.06;42.25;100306.97;4958640;28;20050;-78
2023/04/12 01:46:22;;;;;;;14.30;7.93;;;;;;;15.09;42.52;100301.56;4955895;28;20050;-78
2023/04/12 01:49:18;;;;;;;15.25;8.48;;;;;;;15.05;42.63;100295.22;4958541;28;20051;-78
2023/04/12 01:52:18;;;;;;;14.65;8.57;;;;;;;15.06;42.54;100307.75;4956820;28;20054;-78
2023/04/12 01:55:14;;;;;;;18.52;8.80;;;;;;;14.93;42.76;100303.53;4960167;29;20054;-78
2023/04/12 01:58:08;;;;;;;12.25;8.00;;;;;;;14.97;42.81;100302.47;4957634;29;20046;-78
2023/04/12 02:01:02;;;;;;;9.85;5.75;;;;;;;14.98;42.79;100306.03;4954501;28;20411;-78
2023/04/12 02:03:57;;;;;;;13.38;8.82;;;;;;;15.03;42.72;100294.78;4956109;28;20054;-78
2023/04/12 02:06:52;;;;;;;13.80;8.07;;;;;;;15.04;42.92;100288.13;4956514;28;20054;-78
2023/04/12 02:09:44;;;;;;;14.98;8.40;;;;;;;15.03;42.56;100294.78;4960043;28;20054;-79
2023/04/12 02:12:36;;;;;;;14.00;8.25;;;;;;;15.07;42.66;100292.94;4957474;28;20058;-78
2023/04/12 02:15:31;;;;;;;13.90;7.63;;;;;;;15.11;42.68;100298.47;4954274;28;20054;-79
2023/04/12 02:18:25;;;;;;;12.00;7.63;;;;;;;14.87;43.19;100294.81;4957699;28;20062;-79
2023/04/12 02:21:20;;;;;;;11.45;6.90;;;;;;;14.95;43.16;100288.34;4955738;28;20826;-79
2023/04/12 02:24:15;;;;;;;20.00;9.90;;;;;;;14.87;43.19;100291.25;4953213;28;20054;-79
2023/04/12 02:27:09;;;;;;;10.83;6.13;;;;;;;14.92;43.41;100288.25;4957858;29;20519;-78
2023/04/12 02:30:04;;;;;;;13.53;8.33;;;;;;;14.90;43.49;100287.81;4954206;28;20062;-78
2023/04/12 02:32:58;;;;;;;16.73;9.37;;;;;;;14.99;43.14;100283.72;4960053;28;20282;-79
2023/04/12 02:35:55;;;;;;;16.58;7.68;;;;;;;15.04;43.14;100290.09;4959249;28;20038;-77
2023/04/12 02:38:53;;;;;;;19.00;8.37;;;;;;;14.91;43.30;100286.66;4956582;28;20530;-78
2023/04/12 02:41:48;;;;;;;13.25;7.90;;;;;;;14.91;43.31;100290.19;4959549;28;20403;-79
2023/04/12 02:44:42;;;;;;;18.80;8.73;;;;;;;15.02;43.42;100293.19;4956955;28;20047;-78
2023/04/12 02:47:39;;;;;;;13.70;8.50;;;;;;;15.04;43.21;100301.84;4960925;28;20690;-77
2023/04/12 02:50:34;;;;;;;15.10;8.00;;;;;;;15.12;43.07;100295.41;4958956;28;20050;-78
2023/04/12 02:53:40;;;;;;;15.82;8.40;;;;;;;15.17;43.14;100283.38;4959965;28;20046;-78
2023/04/12 02:56:36;;;;;;;13.35;8.25;;;;;;;15.20;43.07;100269.75;4958793;28;20057;-78
2023/04/12 02:59:38;;;;;;;13.52;8.23;;;;;;;15.25;43.01;100260.44;4956209;28;20046;-77
2023/04/12 03:02:42;;;;;;;11.98;8.13;;;;;;;15.28;43.05;100268.78;4958973;28;20073;-77
2023/04/12 03:05:37;;;;;;;12.15;8.05;;;;;;;15.27;42.81;100264.44;4957018;28;20046;-78
2023/04/12 03:08:31;;;;;;;13.52;7.65;;;;;;;15.23;42.89;100262.78;4960599;28;20410;-78
2023/04/12 03:11:23;;;;;;;17.73;8.43;;;;;;;15.37;42.95;100260.34;4957074;29;20062;-77
2023/04/12 03:14:12;;;;;;;14.35;9.13;;;;;;;15.36;42.75;100256.00;4941328;28;20050;-77
2023/04/12 03:17:07;;;;;;;13.02;8.48;;;;;;;15.44;42.90;100254.22;4940257;29;20055;-77
2023/04/12 03:20:08;;;;;;;15.20;8.50;;;;;;;15.48;42.73;100246.88;4937534;29;20058;-77
2023/04/12 03:23:03;;;;;;;12.52;8.02;;;;;;;15.45;43.17;100242.09;4940925;29;20066;-77
2023/04/12 03:25:58;;;;;;;15.25;8.95;;;;;;;15.41;43.26;100248.31;4938933;29;20051;-77
2023/04/12 03:29:03;;;;;;;15.80;8.45;;;;;;;15.44;43.78;100251.50;4941439;29;20399;-78
2023/04/12 03:31:58;;;;;;;18.15;9.95;;;;;;;15.28;44.51;100243.31;4939672;29;20070;-77
2023/04/12 03:34:52;;;;;;;12.77;6.70;;;;;;;15.23;44.99;100247.13;4937498;29;20047;-78
2023/04/12 03:37:47;;;;;;;16.13;9.43;;;;;;;15.26;44.94;100246.41;4939942;29;20043;-77
2023/04/12 03:40:42;;;;;;;16.77;10.23;;;;;;;15.43;45.06;100249.91;4937448;29;20047;-78
2023/04/12 03:43:29;;;;;;;16.00;9.13;;;;;;;15.39;45.46;100250.59;4939017;29;20039;-78
2023/04/12 03:46:21;;;;;;;18.17;8.68;;;;;;;15.45;45.39;100248.38;4939316;29;20523;-78
2023/04/12 03:49:20;;;;;;;15.90;9.38;;;;;;;15.32;45.72;100239.50;4937504;29;20415;-78
2023/04/12 03:52:15;;;;;;;409.58;378.90;;;;;;;15.26;46.38;100240.13;4940276;29;20163;-78
2023/04/12 03:55:07;;;;;;;195.20;182.15;;;;;;;15.14;47.20;100232.81;4938779;29;20043;-77
2023/04/12 03:57:59;;;;;;;295.00;275.42;;;;;;;15.13;47.31;100224.97;4936482;29;20039;-78
2023/04/12 04:01:00;;;;;;;62.70;57.38;;;;;;;15.10;47.85;100237.44;4939537;29;20672;-78
2023/04/12 04:03:52;;;;;;;19.52;10.98;;;;;;;15.12;47.51;100235.13;4937447;29;20504;-78
2023/04/12 04:06:48;;;;;;;21.35;13.50;;;;;;;15.11;47.66;100232.75;4940596;29;20044;-77
2023/04/12 04:09:40;;;;;;;23.20;14.57;;;;;;;15.15;47.57;100228.94;4939549;29;20395;-78
2023/04/12 04:12:34;;;;;;;22.58;14.85;;;;;;;15.12;48.03;100229.66;4935796;29;20043;-77
2023/04/12 04:15:28;;;;;;;22.80;16.67;;;;;;;15.09;48.12;100222.16;4938302;29;20040;-77
2023/04/12 04:18:23;;;;;;;20.48;18.40;;;;;;;15.07;48.12;100219.00;4936051;29;20048;-77
2023/04/12 04:21:18;;;;;;;19.73;16.48;;;;;;;15.08;47.98;100217.84;4939264;29;20048;-76
2023/04/12 04:24:12;;;;;;;24.75;18.02;;;;;;;14.95;48.34;100219.09;4936691;29;20048;-76
2023/04/12 04:27:09;;;;;;;18.83;13.90;;;;;;;14.93;48.24;100215.94;4940481;29;20048;-76
2023/04/12 04:30:04;;;;;;;20.97;14.70;;;;;;;14.95;47.90;100214.41;4938023;29;20423;-77
2023/04/12 04:33:00;;;;;;;15.88;9.55;;;;;;;14.94;48.00;100221.03;4935507;29;20040;-77
2023/04/12 04:35:52;;;;;;;26.23;18.03;;;;;;;14.98;48.22;100223.88;4939239;29;20051;-76
2023/04/12 04:38:51;;;;;;;20.63;14.98;;;;;;;15.00;48.50;100224.28;4936934;29;20039;-76
2023/04/12 04:41:59;;;;;;;19.67;14.68;;;;;;;15.06;47.77;100220.13;4936261;29;20040;-76
2023/04/12 04:45:11;;;;;;;21.33;9.95;;;;;;;15.10;46.93;100221.00;4934958;29;20039;-76
2023/04/12 04:48:07;;;;;;;16.55;10.90;;;;;;;15.01;46.67;100223.16;4934380;29;20050;-76
2023/04/12 04:51:03;;;;;;;14.95;10.18;;;;;;;14.96;46.93;100220.69;4929589;29;20039;-76
2023/04/12 04:53:58;;;;;;;13.77;8.18;;;;;;;15.09;46.12;100230.34;4930079;29;20052;-76
2023/04/12 04:56:52;;;;;;;21.77;8.67;;;;;;;15.10;45.76;100222.94;4933137;29;20035;-76
2023/04/12 04:59:47;;;;;;;13.05;7.47;;;;;;;15.04;46.20;100229.84;4929652;29;20440;-77
2023/04/12 05:02:42;;;;;;;9.15;5.97;;;;;;;15.09;45.73;100227.63;4935781;29;20042;-77
2023/04/12 05:05:34;;;;;;;11.18;7.07;;;;;;;15.07;45.72;100224.47;4932621;29;20063;-77
2023/04/12 05:08:32;;;;;;;15.90;8.32;;;;;;;15.04;45.95;100227.91;4935437;29;20047;-76
2023/04/12 05:11:26;;;;;;;21.63;8.63;;;;;;;14.99;46.28;100225.44;4935825;29;20058;-77
2023/04/12 05:14:20;;;;;;;12.45;7.68;;;;;;;14.94;46.28;100223.78;4936610;29;20050;-77
2023/04/12 05:17:15;;;;;;;14.90;9.00;;;;;;;14.96;46.19;100212.47;4934070;29;20046;-77
2023/04/12 05:20:11;;;;;;;18.77;9.02;;;;;;;14.87;46.11;100218.16;4932624;29;20055;-76
2023/04/12 05:23:05;;;;;;;16.42;9.38;;;;;;;14.84;46.26;100220.78;4917605;29;20055;-76
2023/04/12 05:26:00;;;;;;;17.35;9.25;;;;;;;14.77;46.07;100226.09;4939386;29;20085;-77
2023/04/12 05:28:55;;;;;;;17.73;7.00;;;;;;;14.76;46.75;100216.31;4937664;29;20051;-77
2023/04/12 05:31:49;;;;;;;20.17;9.97;;;;;;;14.76;47.14;100211.63;4939601;29;20052;-77
2023/04/12 05:34:45;;;;;;;29.67;9.57;;;;;;;14.86;46.81;100221.22;4932688;29;20286;-77
2023/04/12 05:37:37;;;;;;;151.23;17.95;;;;;;;14.91;46.75;100223.69;4934957;29;20067;-77
2023/04/12 05:40:35;;;;;;;25.02;11.85;;;;;;;14.95;46.88;100230.03;4938512;29;20040;-77
2023/04/12 05:43:25;;;;;;;54.33;12.98;;;;;;;14.92;46.83;100230.75;4934105;29;20500;-77
2023/04/12 05:46:20;;;;;;;34.78;12.07;;;;;;;14.87;46.68;100245.53;4934416;29;20047;-77
2023/04/12 05:49:12;;;;;;;20.55;8.98;;;;;;;14.90;46.51;100246.75;4937422;29;20043;-76
2023/04/12 05:52:07;;;;;;;27.40;10.82;;;;;;;14.88;46.77;100243.59;4934523;29;20050;-77
2023/04/12 05:54:59;;;;;;;22.80;11.27;;;;;;;15.04;46.22;100249.81;4938160;29;20523;-76
2023/04/12 05:57:50;;;;;;;29.48;11.20;;;;;;;15.04;45.92;100238.06;4935432;29;20035;-76
2023/04/12 06:00:44;;;;;;;28.00;10.88;;;;;;;14.83;46.61;100239.16;4933143;29;20039;-76
2023/04/12 06:03:40;;;;;;;26.23;10.37;;;;;;;14.84;46.01;100240.75;4952405;29;20039;-76
2023/04/12 06:06:34;;;;;;;21.83;9.27;;;;;;;14.84;46.42;100229.78;4956017;28;20287;-76
2023/04/12 06:09:29;;;;;;;16.10;10.90;;;;;;;14.82;46.78;100220.38;4961441;28;20042;-76
2023/04/12 06:12:23;;;;;;;20.52;11.30;;;;;;;14.85;46.75;100219.63;4959123;28;20039;-76
2023/04/12 06:15:18;;;;;;;14.57;8.55;;;;;;;14.76;46.28;100230.78;4956687;28;20414;-76
2023/04/12 06:18:12;;;;;;;13.35;10.30;;;;;;;14.83;46.55;100230.16;4954941;28;20046;-76
2023/04/12 06:21:04;;;;;;;14.43;10.98;;;;;;;14.77;46.48;100245.28;4936879;29;20052;-76
2023/04/12 06:23:58;;;;;;;20.67;9.32;;;;;;;14.64;46.28;100236.34;4932054;29;20039;-76
2023/04/12 06:26:54;;;;;;;16.17;8.25;;;;;;;14.64;46.55;100224.59;4988557;23;20055;-74
2023/04/12 06:29:46;;;;;;;19.17;9.18;;;;;;;14.70;46.50;100223.19;4919041;29;20055;-74
2023/04/12 06:32:40;;;;;;;16.80;9.00;;;;;;;14.64;46.73;100230.06;4916731;29;20051;-73
2023/04/12 06:35:33;;;;;;;;;;;;;;;14.67;46.58;100235.66;4922395;29;20404;-73
2023/04/12 06:38:28;;;;;;;16.60;8.70;;;;;;;14.67;46.68;100234.84;4919027;29;19914;-72
2023/04/12 06:41:20;;;;;;;15.48;10.88;;;;;;;14.78;46.32;100244.88;4919330;29;20059;-73
2023/04/12 06:44:23;;;;;;;14.55;9.77;;;;;;;14.93;46.50;100249.56;4920744;29;20048;-75
2023/04/12 06:47:17;;;;;;;13.25;6.55;;;;;;;14.96;48.20;100242.59;4919257;29;20523;-77
2023/04/12 06:50:12;;;;;;;40.37;36.87;;;;;;;14.90;45.33;100249.47;4904530;29;20064;-76
2023/04/12 06:53:06;;;;;;;23.20;15.37;;;;;;;14.94;45.60;100228.44;4901770;29;20273;-76
2023/04/12 06:56:04;;;;;;;13.90;9.38;;;;;;;15.01;45.30;100209.47;4904827;29;20656;-76
2023/04/12 06:58:58;;;;;;;20.52;9.15;;;;;;;14.98;45.07;100207.44;4908915;29;20519;-76
2023/04/12 07:01:53;;;;;;;14.63;8.57;;;;;;;14.99;45.24;100209.81;4918264;29;20066;-76
2023/04/12 07:04:47;;;;;;;14.80;7.50;;;;;;;14.96;44.99;100210.53;4922552;29;20088;-75
2023/04/12 07:07:42;;;;;;;13.32;6.72;;;;;;;15.00;45.35;100227.03;4919709;29;20059;-75
2023/04/12 07:10:35;;;;;;;24.52;8.05;;;;;;;15.04;44.42;100225.16;4923223;29;20047;-75
2023/04/12 07:13:29;;;;;;;10.65;5.85;;;;;;;15.12;44.62;100220.66;4921441;29;20058;-75
2023/04/12 07:16:24;;;;;;;15.57;8.13;;;;;;;15.00;44.58;100227.03;4918866;29;20059;-75
2023/04/12 07:19:18;;;;;;;12.57;6.82;;;;;;;14.87;44.39;100218.16;4925990;29;20283;-76
2023/04/12 07:22:13;;;;;;;13.02;7.90;;;;;;;14.96;45.26;100224.22;4938957;29;20042;-75
2023/04/12 07:25:05;;;;;;;17.00;8.73;;;;;;;14.96;44.61;100226.16;4937199;29;20058;-76
2023/04/12 07:28:00;;;;;;;16.35;8.27;;;;;;;14.91;44.84;100220.97;4938657;29;20046;-76
2023/04/12 07:30:54;;;;;;;16.60;7.80;;;;;;;14.93;45.86;100222.19;4937853;29;20548;-74
2023/04/12 07:33:49;;;;;;;14.90;6.17;;;;;;;14.92;45.65;100228.81;4941520;29;20062;-76
2023/04/12 07:36:43;;;;;;;12.00;6.50;;;;;;;14.84;45.48;100229.00;4939032;29;20271;-75
2023/04/12 07:39:38;;;;;;;18.92;8.18;;;;;;;14.94;45.47;100217.50;4936905;29;20435;-72
2023/04/12 07:42:32;;;;;;;18.57;7.80;;;;;;;14.98;45.51;100212.91;4940070;29;20272;-76
2023/04/12 07:45:24;;;;;;;13.55;8.25;;;;;;;14.96;45.28;100207.78;4937822;29;20278;-75
2023/04/12 07:48:16;;;;;;;11.40;6.45;;;;;;;15.00;46.43;100194.16;4937580;29;20424;-74
2023/04/12 07:51:11;;;;;;;13.52;8.00;;;;;;;14.90;45.10;100200.19;4938834;29;20421;-73
2023/04/12 07:54:06;;;;;;;15.90;8.18;;;;;;;14.89;45.93;100204.09;4936889;29;20054;-75
2023/04/12 07:57:03;;;;;;;13.50;7.17;;;;;;;14.93;45.32;100207.72;4940091;29;20519;-76
2023/04/12 07:59:57;;;;;;;13.82;8.52;;;;;;;15.06;45.83;100214.66;4937748;29;20047;-75
2023/04/12 08:02:49;;;;;;;17.05;8.68;;;;;;;15.07;45.84;100210.78;4941147;29;20055;-74
2023/04/12 08:05:41;;;;;;;16.97;9.33;;;;;;;15.11;44.82;100217.13;4939009;29;20054;-76
2023/04/12 08:08:36;;;;;;;17.02;8.20;;;;;;;15.11;43.89;100221.78;4936355;29;20814;-75
2023/04/12 08:11:31;;;;;;;14.00;7.93;;;;;;;15.11;44.65;100228.06;4939697;29;20063;-75
2023/04/12 08:14:23;;;;;;;15.30;8.38;;;;;;;15.24;43.83;100237.75;4937745;29;20042;-75
2023/04/12 08:17:17;;;;;;;13.13;8.02;;;;;;;15.12;42.50;100237.88;4939908;29;20054;-76
2023/04/12 08:20:12;;;;;;;14.80;7.45;;;;;;;15.25;42.36;100244.00;4939020;29;20055;-74
2023/04/12 08:23:04;;;;;;;31.83;7.60;;;;;;;15.15;42.24;100239.91;4936860;29;20055;-74
2023/04/12 08:26:01;;;;;;;16.10;8.27;;;;;;;15.23;42.51;100238.13;4940247;29;20051;-75
2023/04/12 08:28:53;;;;;;;21.02;7.35;;;;;;;15.28;41.69;100246.84;4937390;29;20074;-75
2023/04/12 08:31:48;;;;;;;18.58;7.85;;;;;;;15.20;40.62;100231.41;4935320;29;20051;-75
2023/04/12 08:34:43;;;;;;;14.50;8.70;;;;;;;15.23;41.50;100241.66;4939230;29;20050;-74
2023/04/12 08:37:37;;;;;;;14.57;7.18;;;;;;;15.34;40.51;100239.91;4937108;29;20047;-74
2023/04/12 08:40:29;;;;;;;17.30;7.50;;;;;;;15.37;41.32;100230.19;4939560;29;20066;-75
2023/04/12 08:43:28;;;;;;;17.60;8.13;;;;;;;15.34;40.17;100234.44;4937849;29;20530;-75
2023/04/12 08:46:22;;;;;;;13.82;8.23;;;;;;;15.33;40.79;100238.34;4935466;29;20427;-75
2023/04/12 08:49:17;;;;;;;18.03;6.17;;;;;;;15.25;40.05;100228.38;4938702;29;20506;-74
2023/04/12 08:52:11;;;;;;;12.73;7.30;;;;;;;15.35;39.99;100232.50;4936035;29;20287;-74
2023/04/12 08:55:05;;;;;;;13.00;6.32;;;;;;;15.28;40.24;100248.78;4939981;29;20042;-75
2023/04/12 08:58:01;;;;;;;14.90;5.63;;;;;;;15.33;40.85;100241.09;4937244;29;20534;-75
2023/04/12 09:00:53;;;;;;;13.57;7.50;;;;;;;15.41;39.94;100258.47;4940537;29;20074;-74
2023/04/12 09:03:49;;;;;;;12.52;7.07;;;;;;;15.20;39.76;100258.78;4938544;29;20404;-75
2023/04/12 09:06:44;;;;;;;20.40;8.18;;;;;;;15.28;39.37;100259.75;4936090;29;20055;-75
2023/04/12 09:09:49;;;;;;;12.98;5.80;;;;;;;15.39;38.15;100263.50;4939734;29;20071;-75
2023/04/12 09:12:48;;;;;;;12.88;6.47;;;;;;;15.39;38.78;100260.75;4937009;29;20066;-75
2023/04/12 09:15:52;;;;;;;10.57;6.30;;;;;;;15.47;37.97;100253.50;4940175;29;20062;-74
2023/04/12 09:18:56;;;;;;;9.40;5.82;;;;;;;15.38;37.33;100243.56;4934887;29;20042;-75
2023/04/12 09:21:58;;;;;;;9.45;5.35;;;;;;;15.41;36.51;100247.50;4934644;29;20058;-75
2023/04/12 09:24:52;;;;;;;7.22;4.47;;;;;;;15.62;38.25;100252.69;4937925;29;20400;-74
2023/04/12 09:27:53;;;;;;;12.18;4.40;;;;;;;15.75;36.57;100240.41;4935192;29;20047;-75
2023/04/12 09:30:50;;;;;;;12.57;4.60;;;;;;;15.80;34.91;100232.69;4938056;29;20531;-75
2023/04/12 09:33:44;;;;;;;6.95;3.90;;;;;;;15.79;35.41;100241.28;4934561;29;20051;-74
2023/04/12 09:36:45;;;;;;;9.20;3.75;;;;;;;15.69;35.09;100231.69;4939555;29;20463;-74
2023/04/12 09:39:40;;;;;;;10.02;4.30;;;;;;;15.88;36.26;100235.56;4936997;29;20051;-75
2023/04/12 09:42:35;;;;;;;7.50;4.20;;;;;;;15.90;34.38;100241.50;4934610;29;20519;-75
2023/04/12 09:45:30;;;;;;;7.72;4.63;;;;;;;15.78;34.08;100228.72;4934586;29;20274;-75
2023/04/12 09:48:28;;;;;;;9.23;4.03;;;;;;;15.81;33.78;100220.56;4935439;29;20411;-75
2023/04/12 09:51:41;;;;;;;6.70;4.20;;;;;;;15.80;34.29;100224.47;4938543;29;20055;-75
2023/04/12 09:54:44;;;;;;;7.97;4.35;;;;;;;15.77;34.10;100206.00;4935971;29;20047;-75
2023/04/12 09:57:43;;;;;;;7.55;3.95;;;;;;;15.71;33.82;100201.97;4937002;29;20055;-75
2023/04/12 10:00:36;;;;;;;6.25;4.10;;;;;;;15.72;33.88;100195.31;4936059;29;20051;-75
2023/04/12 10:03:31;;;;;;;7.20;4.30;;;;;;;15.83;34.05;100203.75;4939690;29;20546;-75
2023/04/12 10:06:25;;;;;;;8.90;3.83;;;;;;;15.88;33.59;100199.94;4937578;29;20050;-75
2023/04/12 10:09:20;;;;;;;7.03;3.93;;;;;;;15.87;33.66;100195.59;4918108;29;20055;-75
2023/04/12 10:12:15;;;;;;;19.25;4.10;;;;;;;15.87;33.16;100190.09;4914063;29;20056;-75
2023/04/12 10:15:12;;;;;;;5.95;3.63;;;;;;;15.82;33.31;100192.00;4908785;29;20421;-75
2023/04/12 10:18:07;;;;;;;9.60;3.17;;;;;;;15.90;34.42;100192.91;4904649;29;20047;-74
2023/04/12 10:21:02;;;;;;;7.07;4.10;;;;;;;15.90;33.18;100200.38;4912292;29;20051;-74
2023/04/12 10:23:56;;;;;;;9.02;3.03;;;;;;;15.92;33.04;100198.84;4915758;29;20047;-75
2023/04/12 10:26:54;;;;;;;11.88;3.05;;;;;;;16.01;32.45;100188.41;4919325;29;20157;-75
2023/04/12 10:29:48;;;;;;;11.18;3.70;;;;;;;15.98;33.23;100189.16;4917302;29;20067;-74
2023/04/12 10:32:43;;;;;;;7.40;3.90;;;;;;;15.92;33.12;100185.13;4916634;29;20067;-75
2023/04/12 10:35:59;;;;;;;8.38;3.70;;;;;;;15.93;33.01;100185.91;4917994;29;20114;-74
2023/04/12 10:39:11;;;;;;;7.28;3.10;;;;;;;16.05;32.94;100174.78;4915103;29;20051;-76
2023/04/12 10:42:26;;;;;;;7.82;4.03;;;;;;;16.07;34.02;100169.72;4917204;29;20048;-75
2023/04/12 10:45:35;;;;;;;7.60;3.70;;;;;;;16.16;33.69;100178.50;4918991;29;20063;-74
2023/04/12 10:48:55;;;;;;;6.70;3.67;;;;;;;16.00;33.51;100186.06;4915782;29;20055;-75
2023/04/12 10:52:09;;;;;;;8.95;3.80;;;;;;;15.88;32.97;100186.22;4919052;29;20535;-75
2023/04/12 10:55:29;;;;;;;7.53;4.03;;;;;;;16.00;33.00;100175.84;4919576;29;20051;-75
2023/04/12 10:58:57;;;;;;;9.40;3.88;;;;;;;15.90;33.95;100165.50;4919410;29;20047;-75
2023/04/12 11:02:09;;;;;;;9.38;4.10;;;;;;;15.90;33.26;100170.97;4922574;29;20067;-74
2023/04/12 11:05:12;;;;;;;6.63;4.22;;;;;;;15.93;34.35;100162.03;4920770;29;20055;-75
2023/04/12 11:08:25;;;;;;;7.88;4.78;;;;;;;15.91;34.19;100167.06;4911332;29;20043;-74
2023/04/12 11:11:45;;;;;;;6.45;4.22;;;;;;;15.90;34.40;100151.78;4919472;29;20079;-74
2023/04/12 11:14:49;;;;;;;10.60;4.75;;;;;;;16.03;34.64;100147.72;4922124;29;20055;-75
2023/04/12 11:17:54;;;;;;;13.00;4.25;;;;;;;15.94;35.07;100147.19;4918543;29;20416;-75
2023/04/12 11:20:49;;;;;;;11.90;4.28;;;;;;;16.02;35.71;100140.66;4922141;29;20527;-75
2023/04/12 11:23:42;;;;;;;10.02;5.50;;;;;;;16.09;36.05;100146.25;4915144;29;20051;-75
2023/04/12 11:26:36;;;;;;;13.90;5.43;;;;;;;16.27;35.38;100147.34;4912626;29;20040;-75
2023/04/12 11:29:34;;;;;;;13.82;3.95;;;;;;;16.21;35.26;100123.31;4914925;29;20136;-74
2023/04/12 11:32:27;;;;;;;9.98;5.00;;;;;;;16.13;35.22;100125.16;4915144;29;20538;-74
2023/04/12 11:35:25;;;;;;;10.93;5.25;;;;;;;16.15;35.69;100122.81;4915175;29;20055;-75
2023/04/12 11:38:20;;;;;;;10.35;4.57;;;;;;;16.46;35.91;100115.47;4911067;29;20527;-75
2023/04/12 11:41:15;;;;;;;4.33;2.97;;;;;;;16.59;36.57;100108.66;4913545;29;20055;-75
2023/04/12 11:44:08;;;;;;;6.03;3.88;;;;;;;16.64;36.00;100098.16;4907319;29;20173;-74
2023/04/12 11:47:00;;;;;;;9.15;4.85;;;;;;;16.60;35.58;100105.56;4915697;29;20051;-75
2023/04/12 11:49:56;;;;;;;16.98;4.57;;;;;;;16.73;35.65;100088.84;4921895;29;20043;-74
2023/04/12 11:52:50;;;;;;;9.38;4.47;;;;;;;16.55;35.22;100091.31;4919810;29;20067;-75
2023/04/12 11:55:48;;;;;;;7.93;4.57;;;;;;;16.61;35.49;100101.63;4917811;29;20043;-75
2023/04/12 11:58:43;;;;;;;8.00;4.50;;;;;;;16.62;35.83;100111.44;4917436;29;20051;-75
2023/04/12 12:01:36;;;;;;;7.90;3.85;;;;;;;16.66;35.58;100095.00;4916952;29;20047;-74
2023/04/12 12:04:31;;;;;;;9.45;5.70;;;;;;;16.64;35.87;100089.91;4910832;29;20416;-75
2023/04/12 12:07:26;;;;;;;6.57;4.00;;;;;;;16.83;36.21;100094.47;4915226;29;20408;-74
2023/04/12 12:10:21;;;;;;;10.90;5.55;;;;;;;16.96;36.01;100079.34;4912560;29;20055;-74
2023/04/12 12:13:16;;;;;;;9.27;5.70;;;;;;;17.00;36.22;100077.44;4920890;29;20048;-74
2023/04/12 12:16:11;;;;;;;17.38;5.70;;;;;;;16.95;36.03;100072.28;4918437;29;20368;-74
2023/04/12 12:19:07;;;;;;;11.80;6.25;;;;;;;17.02;36.06;100066.06;4918536;29;20117;-74
2023/04/12 12:22:25;;;;;;;13.57;5.22;;;;;;;17.05;36.24;100055.13;4899766;29;20055;-74
2023/04/12 12:25:19;;;;;;;12.70;6.18;;;;;;;17.04;35.65;100053.53;4900767;29;20048;-74
2023/04/12 12:28:16;;;;;;;11.50;5.40;;;;;;;17.08;36.06;100050.84;4941183;23;20063;-76
2023/04/12 12:31:14;;;;;;;17.92;6.75;;;;;;;17.33;35.76;100060.13;4935291;29;20055;-76
2023/04/12 12:34:08;;;;;;;9.65;6.15;;;;;;;17.37;35.80;100060.19;4939320;29;20054;-76
2023/04/12 12:37:16;;;;;;;13.82;6.65;;;;;;;17.46;35.99;100057.94;4936316;29;20051;-76
2023/04/12 12:40:29;;;;;;;10.95;6.63;;;;;;;17.35;35.94;100054.28;4939239;29;20067;-76
2023/04/12 12:43:24;;;;;;;9.68;4.75;;;;;;;17.35;36.34;100052.31;4936700;29;20047;-76
2023/04/12 12:46:19;;;;;;;7.80;4.93;;;;;;;17.50;35.82;100042.25;4941310;29;20058;-75
2023/04/12 12:49:13;;;;;;;11.70;6.22;;;;;;;17.52;35.34;100042.69;4923898;29;20062;-76
2023/04/12 12:52:07;;;;;;;10.23;6.20;;;;;;;17.67;35.00;100035.38;4934681;29;20058;-77
2023/04/12 12:55:02;;;;;;;11.82;7.20;;;;;;;17.46;35.30;100027.69;4938097;28;20050;-77
2023/04/12 12:58:00;;;;;;;13.50;5.35;;;;;;;17.69;35.71;100028.31;4941390;28;20415;-77
2023/04/12 13:00:54;;;;;;;10.68;6.22;;;;;;;17.83;34.83;100022.94;4945313;28;20050;-77
2023/04/12 13:03:46;;;;;;;16.13;6.32;;;;;;;17.95;34.25;100030.91;4940999;28;20512;-77
2023/04/12 13:06:41;;;;;;;11.27;6.03;;;;;;;18.07;35.28;100035.31;4918757;29;20427;-77
2023/04/12 13:09:35;;;;;;;11.63;6.90;;;;;;;18.04;34.41;100029.78;4949800;28;20411;-77
2023/04/12 13:12:30;;;;;;;19.77;6.38;;;;;;;17.84;34.77;100013.50;4956182;28;20454;-77
2023/04/12 13:15:25;;;;;;;18.88;7.88;;;;;;;17.84;34.39;100007.22;4959310;28;20085;-77
2023/04/12 13:18:19;;;;;;;10.65;6.80;;;;;;;17.87;34.66;100010.03;4956753;28;20399;-77
2023/04/12 13:21:14;;;;;;;9.10;5.13;;;;;;;17.58;35.22;99994.41;4954209;28;20062;-77
2023/04/12 13:24:06;;;;;;;11.43;6.15;;;;;;;17.45;35.33;99982.91;4950083;28;20050;-77
2023/04/12 13:27:00;;;;;;;16.73;6.70;;;;;;;17.58;35.12;99980.66;4944088;29;20530;-77
2023/04/12 13:29:55;;;;;;;10.48;6.50;;;;;;;17.48;35.47;99990.41;4943691;28;20066;-78
2023/04/12 13:32:49;;;;;;;9.70;6.13;;;;;;;17.59;35.67;99995.19;4936144;28;20043;-77